Cemal Kaptan — TCUW — position and weather

sailwx.info

Track history (hours):
 
Tides and Currents Weather Stations Pressure Air Temp Water Temp Dewpoint Dewpoint Depression Visibility Wind Speed Wind Dir Waves Ship Positions

Cemal Kaptan

Last reported at 2017-Dec-11 13:46 UTC. Time now 2017-Dec-12 16:02 UTC.
Position N 40°59' E 029°00'.

Length 81 m; draft 5.6 m.

Type: Cargo ship. MMSI: 271002256.

Date/timePositionNaut miles runAvg speedWind from/ knotsBaromVisibWave heightAir tempDewpointWater temp
2017-Dec-11 13:46N 40°59' E 029°00'3 7.7
2017-Dec-11 13:27N 40°57' E 029°02'4 8.9
2017-Dec-11 12:59N 40°54' E 029°06'3 5.8
2017-Dec-11 12:30N 40°53' E 029°09'1 1.9
2017-Dec-11 12:00N 40°53' E 029°10'0 0.0
2017-Dec-11 11:29N 40°53' E 029°10'0 0.0
2017-Dec-11 11:00N 40°53' E 029°10'0 0.0
2017-Dec-11 10:30N 40°53' E 029°10'0 0.0
2017-Dec-11 10:00N 40°53' E 029°10'0 0.0
2017-Dec-11 09:30N 40°53' E 029°10'0 0.1
2017-Dec-11 09:00N 40°53' E 029°10'0 0.0
2017-Dec-11 08:30N 40°53' E 029°10'0 0.0
2017-Dec-11 08:00N 40°53' E 029°10'0 0.0
2017-Dec-11 07:30N 40°53' E 029°10'0 0.0
2017-Dec-11 07:00N 40°53' E 029°10'0 0.0
2017-Dec-11 06:30N 40°53' E 029°10'0 0.0
2017-Dec-11 06:00N 40°53' E 029°10'0 0.1
2017-Dec-11 05:30N 40°53' E 029°10'0 0.1
2017-Dec-11 05:00N 40°53' E 029°10'0 0.0
2017-Dec-11 04:30N 40°53' E 029°10'0 0.0
2017-Dec-11 04:00N 40°53' E 029°10'0 0.0
2017-Dec-11 03:30N 40°53' E 029°10'0 0.0
2017-Dec-11 03:00N 40°53' E 029°10'0 0.0
2017-Dec-11 02:30N 40°53' E 029°10'0 0.1
2017-Dec-11 02:00N 40°53' E 029°10'0 0.0
2017-Dec-11 01:30N 40°53' E 029°10'0 0.0
2017-Dec-11 01:00N 40°53' E 029°10'0 0.1
2017-Dec-11 00:30N 40°53' E 029°10'0 0.0
2017-Dec-11 00:00N 40°53' E 029°10'0 0.0
2017-Dec-10 23:30N 40°53' E 029°10'0 0.0
2017-Dec-10 23:00N 40°53' E 029°10'0 0.0
2017-Dec-10 22:28N 40°53' E 029°10'0 0.0
2017-Dec-10 22:00N 40°53' E 029°10'0 0.0
2017-Dec-10 21:30N 40°53' E 029°10'0 0.1
2017-Dec-10 21:00N 40°53' E 029°10'0 0.0
2017-Dec-10 20:29N 40°53' E 029°10'2 3.2
2017-Dec-10 20:00N 40°51' E 029°11'5 9.5
2017-Dec-10 19:30N 40°47' E 029°14'5 9.3
2017-Dec-10 19:00N 40°45' E 029°19'4 8.2
2017-Dec-10 18:30N 40°45' E 029°25'5 8.8
2017-Dec-10 17:59N 40°45' E 029°31'4 0.3
2017-Dec-10 05:47N 40°44' E 029°26'3 8.8
2017-Dec-10 05:28N 40°43' E 029°23'3 6.0
2017-Dec-10 05:00N 40°42' E 029°19'3 6.9
2017-Dec-10 04:30N 40°41' E 029°15'3 6.8
2017-Dec-10 04:00N 40°41' E 029°11'3 6.3
2017-Dec-10 03:30N 40°40' E 029°07'3 6.6
2017-Dec-10 03:00N 40°40' E 029°02'203 5.2
2017-Dec-08 11:43N 37°57' E 026°24'2 8.6
2017-Dec-08 11:30N 37°56' E 026°26'4 8.7
2017-Dec-08 11:00N 37°52' E 026°28'13 9.0
2017-Dec-08 09:33N 37°40' E 026°35'1 9.1
2017-Dec-08 09:29N 37°39' E 026°35'5 8.9
2017-Dec-08 08:55N 37°35' E 026°39'4 8.8
2017-Dec-08 08:27N 37°32' E 026°42'5 8.9
2017-Dec-08 07:51N 37°28' E 026°46'3 8.8
2017-Dec-08 07:30N 37°25' E 026°48'4 8.8
2017-Dec-08 07:00N 37°21' E 026°51'22 8.7
2017-Dec-08 04:29N 37°04' E 027°07'  
Track history (hours):
 
Tides and Currents Weather Stations Pressure Air Temp Water Temp Dewpoint Dewpoint Depression Visibility Wind Speed Wind Dir Waves Ship Positions

Cemal Kaptan

Last reported at 2017-Dec-11 13:46 UTC. Time now 2017-Dec-12 16:02 UTC.
Position N 40°59' E 029°00'.

Length 81 m; draft 5.6 m.

Type: Cargo ship. MMSI: 271002256.

Date/timePositionNaut miles runAvg speedWind from/ knotsBaromVisibWave heightAir tempDewpointWater temp
2017-Dec-11 13:46N 40°59' E 029°00'3 7.7
2017-Dec-11 13:27N 40°57' E 029°02'4 8.9
2017-Dec-11 12:59N 40°54' E 029°06'3 5.8
2017-Dec-11 12:30N 40°53' E 029°09'1 1.9
2017-Dec-11 12:00N 40°53' E 029°10'0 0.0
2017-Dec-11 11:29N 40°53' E 029°10'0 0.0
2017-Dec-11 11:00N 40°53' E 029°10'0 0.0
2017-Dec-11 10:30N 40°53' E 029°10'0 0.0
2017-Dec-11 10:00N 40°53' E 029°10'0 0.0
2017-Dec-11 09:30N 40°53' E 029°10'0 0.1
2017-Dec-11 09:00N 40°53' E 029°10'0 0.0
2017-Dec-11 08:30N 40°53' E 029°10'0 0.0
2017-Dec-11 08:00N 40°53' E 029°10'0 0.0
2017-Dec-11 07:30N 40°53' E 029°10'0 0.0
2017-Dec-11 07:00N 40°53' E 029°10'0 0.0
2017-Dec-11 06:30N 40°53' E 029°10'0 0.0
2017-Dec-11 06:00N 40°53' E 029°10'0 0.1
2017-Dec-11 05:30N 40°53' E 029°10'0 0.1
2017-Dec-11 05:00N 40°53' E 029°10'0 0.0
2017-Dec-11 04:30N 40°53' E 029°10'0 0.0
2017-Dec-11 04:00N 40°53' E 029°10'0 0.0
2017-Dec-11 03:30N 40°53' E 029°10'0 0.0
2017-Dec-11 03:00N 40°53' E 029°10'0 0.0
2017-Dec-11 02:30N 40°53' E 029°10'0 0.1
2017-Dec-11 02:00N 40°53' E 029°10'0 0.0
2017-Dec-11 01:30N 40°53' E 029°10'0 0.0
2017-Dec-11 01:00N 40°53' E 029°10'0 0.1
2017-Dec-11 00:30N 40°53' E 029°10'0 0.0
2017-Dec-11 00:00N 40°53' E 029°10'0 0.0
2017-Dec-10 23:30N 40°53' E 029°10'0 0.0
2017-Dec-10 23:00N 40°53' E 029°10'0 0.0
2017-Dec-10 22:28N 40°53' E 029°10'0 0.0
2017-Dec-10 22:00N 40°53' E 029°10'0 0.0
2017-Dec-10 21:30N 40°53' E 029°10'0 0.1
2017-Dec-10 21:00N 40°53' E 029°10'0 0.0
2017-Dec-10 20:29N 40°53' E 029°10'2 3.2
2017-Dec-10 20:00N 40°51' E 029°11'5 9.5
2017-Dec-10 19:30N 40°47' E 029°14'5 9.3
2017-Dec-10 19:00N 40°45' E 029°19'4 8.2
2017-Dec-10 18:30N 40°45' E 029°25'5 8.8
2017-Dec-10 17:59N 40°45' E 029°31'4 0.3
2017-Dec-10 05:47N 40°44' E 029°26'3 8.8
2017-Dec-10 05:28N 40°43' E 029°23'3 6.0
2017-Dec-10 05:00N 40°42' E 029°19'3 6.9
2017-Dec-10 04:30N 40°41' E 029°15'3 6.8
2017-Dec-10 04:00N 40°41' E 029°11'3 6.3
2017-Dec-10 03:30N 40°40' E 029°07'3 6.6
2017-Dec-10 03:00N 40°40' E 029°02'203 5.2
2017-Dec-08 11:43N 37°57' E 026°24'2 8.6
2017-Dec-08 11:30N 37°56' E 026°26'4 8.7
2017-Dec-08 11:00N 37°52' E 026°28'13 9.0
2017-Dec-08 09:33N 37°40' E 026°35'1 9.1
2017-Dec-08 09:29N 37°39' E 026°35'5 8.9
2017-Dec-08 08:55N 37°35' E 026°39'4 8.8
2017-Dec-08 08:27N 37°32' E 026°42'5 8.9
2017-Dec-08 07:51N 37°28' E 026°46'3 8.8
2017-Dec-08 07:30N 37°25' E 026°48'4 8.8
2017-Dec-08 07:00N 37°21' E 026°51'22 8.7
2017-Dec-08 04:29N 37°04' E 027°07'  

Dump ship's entire track history